Time;durP1;ratioP1;P1;durP2;ratioP2;P2;SDS_P1;SDS_P2;PMS_P1;PMS_P2;Temp;Humidity;BMP_temperature;BMP_pressure;BME280_temperature;BME280_humidity;BME280_pressure;Samples;Min_cycle;Max_cycle;Signal;HPM_P1;HPM_P2
2022/03/16 00:00:17;;;;;;;518.33;329.90;;;;;;;6.50;100.00;99022.44;6144107;23;20017;-65
2022/03/16 00:02:45;;;;;;;511.53;322.73;;;;;;;6.53;100.00;99012.28;6145776;23;20497;-65
2022/03/16 00:05:12;;;;;;;511.50;318.67;;;;;;;6.39;100.00;98991.84;6147205;23;20084;-65
2022/03/16 00:07:38;;;;;;;512.50;324.30;;;;;;;6.47;100.00;99009.69;6143761;23;20014;-65
2022/03/16 00:10:05;;;;;;;511.43;327.97;;;;;;;6.39;100.00;98990.16;6146908;23;20036;-65
2022/03/16 00:12:30;;;;;;;507.23;323.27;;;;;;;6.45;100.00;98999.50;6145585;23;20016;-65
2022/03/16 00:14:56;;;;;;;505.83;312.17;;;;;;;6.30;100.00;98990.13;6146154;23;20006;-65
2022/03/16 00:17:21;;;;;;;503.37;320.80;;;;;;;6.27;100.00;98987.56;6147430;23;20077;-65
2022/03/16 00:19:46;;;;;;;505.27;319.30;;;;;;;6.32;100.00;99008.78;6144000;23;20010;-64
2022/03/16 00:22:12;;;;;;;505.60;316.33;;;;;;;6.31;100.00;98985.88;6147134;23;20498;-65
2022/03/16 00:24:37;;;;;;;511.90;324.93;;;;;;;6.33;100.00;98991.81;6144694;23;20009;-65
2022/03/16 00:27:03;;;;;;;502.13;315.50;;;;;;;6.24;100.00;98990.06;6145827;23;20018;-65
2022/03/16 00:29:28;;;;;;;503.77;315.80;;;;;;;6.30;100.00;98990.13;6146051;23;20020;-66
2022/03/16 00:31:54;;;;;;;502.77;308.30;;;;;;;6.26;100.00;98987.56;6146425;23;20014;-65
2022/03/16 00:34:19;;;;;;;502.37;315.03;;;;;;;6.28;100.00;98996.06;6147214;23;20010;-65
2022/03/16 00:36:45;;;;;;;499.53;306.73;;;;;;;6.12;100.00;98967.13;6144464;23;20503;-65
2022/03/16 00:39:11;;;;;;;495.93;302.43;;;;;;;6.22;100.00;98976.50;6144719;23;20016;-66
2022/03/16 00:41:37;;;;;;;498.63;305.67;;;;;;;6.20;100.00;98973.09;6146732;22;20448;-65
2022/03/16 00:44:04;;;;;;;494.57;296.53;;;;;;;6.28;100.00;98975.69;6144499;23;20037;-65
2022/03/16 00:46:29;;;;;;;502.73;308.00;;;;;;;6.17;100.00;98957.81;6146153;23;20088;-65
2022/03/16 00:48:55;;;;;;;502.67;309.97;;;;;;;6.22;100.00;98968.03;6144476;23;20037;-65
2022/03/16 00:51:21;;;;;;;500.73;308.50;;;;;;;6.13;100.00;98961.19;6146526;23;20451;-65
2022/03/16 00:53:47;;;;;;;497.97;300.90;;;;;;;6.06;100.00;98944.22;6146694;23;20056;-66
2022/03/16 00:56:13;;;;;;;496.00;298.13;;;;;;;5.93;100.00;98927.19;6144076;23;20490;-65
2022/03/16 00:58:38;;;;;;;494.27;301.83;;;;;;;6.06;100.00;98931.50;6141759;23;20048;-65
2022/03/16 01:01:05;;;;;;;488.27;302.53;;;;;;;5.96;100.00;98917.00;6140706;23;20156;-65
2022/03/16 01:03:31;;;;;;;486.73;301.97;;;;;;;6.04;100.00;98930.63;6147118;23;20016;-65
2022/03/16 01:05:57;;;;;;;484.33;302.17;;;;;;;6.06;100.00;98921.31;6146097;23;20066;-65
2022/03/16 01:08:22;;;;;;;474.13;293.47;;;;;;;6.07;100.00;98915.34;6144658;23;20088;-67
2022/03/16 01:10:48;;;;;;;473.80;300.93;;;;;;;6.12;100.00;98926.41;6146567;23;20018;-65
2022/03/16 01:13:14;;;;;;;471.87;295.97;;;;;;;6.15;100.00;98923.03;6144501;23;20014;-65
2022/03/16 01:15:39;;;;;;;469.00;295.37;;;;;;;6.15;100.00;98913.72;6146672;23;20037;-66
2022/03/16 01:18:04;;;;;;;471.40;304.50;;;;;;;6.28;100.00;98915.41;6144732;23;20048;-66
2022/03/16 01:20:30;;;;;;;464.73;295.47;;;;;;;6.27;100.00;98903.56;6145677;23;20439;-65
2022/03/16 01:22:55;;;;;;;465.77;291.90;;;;;;;6.33;100.00;98902.69;6147640;23;20016;-65
2022/03/16 01:25:22;;;;;;;463.43;295.03;;;;;;;6.23;100.00;98894.22;6145244;23;20020;-65
2022/03/16 01:27:47;;;;;;;467.10;302.90;;;;;;;6.37;100.00;98905.25;6145026;23;20021;-65
2022/03/16 01:30:13;;;;;;;468.97;310.47;;;;;;;6.26;100.00;98890.81;6144089;23;20010;-65
2022/03/16 01:32:39;;;;;;;468.83;311.53;;;;;;;6.33;100.00;98906.09;6147285;23;20009;-65
2022/03/16 01:35:06;;;;;;;470.67;313.93;;;;;;;6.34;100.00;98899.31;6145113;23;20009;-64
2022/03/16 01:37:31;;;;;;;466.33;306.80;;;;;;;6.37;100.00;98904.41;6144611;23;20440;-65
2022/03/16 01:39:57;;;;;;;461.27;307.53;;;;;;;6.38;100.00;98893.38;6146992;22;20036;-64
2022/03/16 01:42:22;;;;;;;458.13;308.20;;;;;;;6.56;100.00;98897.66;6143354;23;20749;-64
2022/03/16 01:44:53;;;;;;;460.83;298.67;;;;;;;6.52;100.00;98908.69;6146903;23;20025;-64
2022/03/16 01:47:21;;;;;;;459.47;304.17;;;;;;;6.43;100.00;98897.63;6144182;23;20474;-64
2022/03/16 01:49:48;;;;;;;458.40;299.73;;;;;;;6.39;100.00;98892.53;6146416;23;20033;-64
2022/03/16 01:52:25;;;;;;;455.93;301.53;;;;;;;6.36;100.00;98890.84;6146896;22;20020;-65
2022/03/16 01:54:51;;;;;;;453.70;298.77;;;;;;;6.47;100.00;98906.13;6144642;23;20010;-65
2022/03/16 01:57:17;;;;;;;454.60;305.53;;;;;;;6.46;100.00;98904.44;6146261;23;20495;-65
2022/03/16 01:59:44;;;;;;;457.07;308.53;;;;;;;6.46;100.00;98904.44;6144435;23;20055;-65
2022/03/16 02:02:10;;;;;;;458.37;301.83;;;;;;;6.44;100.00;98890.84;6146884;23;20095;-65
2022/03/16 02:04:36;;;;;;;456.23;309.00;;;;;;;6.47;100.00;98892.53;6144967;23;20002;-65
2022/03/16 02:07:02;;;;;;;468.43;305.80;;;;;;;6.49;100.00;98896.81;6144933;23;20096;-65
2022/03/16 02:09:29;;;;;;;469.50;308.73;;;;;;;6.66;100.00;98902.75;6144669;23;20041;-65
2022/03/16 02:11:54;;;;;;;459.43;298.43;;;;;;;6.82;100.00;98883.25;6248985;22;20445;-65
2022/03/16 02:14:19;;;;;;;464.73;316.93;;;;;;;6.96;100.00;98883.25;6144654;23;20088;-63
2022/03/16 02:16:46;;;;;;;458.00;308.77;;;;;;;7.17;100.00;98889.13;6146381;23;20080;-64
2022/03/16 02:19:11;;;;;;;462.17;314.60;;;;;;;7.22;100.00;98863.63;6145405;23;20009;-64
2022/03/16 02:21:40;;;;;;;460.13;314.77;;;;;;;7.28;100.00;98889.13;6146210;23;20010;-64
2022/03/16 02:24:06;;;;;;;459.87;318.90;;;;;;;7.33;100.00;98888.28;6146358;23;20013;-64
2022/03/16 02:26:31;;;;;;;461.10;321.57;;;;;;;7.28;100.00;98887.44;6144449;22;20014;-65
2022/03/16 02:28:57;;;;;;;462.30;324.03;;;;;;;7.32;100.00;98881.47;6145715;23;20016;-64
2022/03/16 02:31:23;;;;;;;459.83;325.43;;;;;;;7.66;100.00;98889.03;6146339;23;20044;-63
2022/03/16 02:33:49;;;;;;;467.53;332.87;;;;;;;7.59;100.00;98883.13;6145692;23;20005;-64
2022/03/16 02:36:14;;;;;;;463.50;330.03;;;;;;;7.53;100.00;98893.34;6146969;23;20006;-66
2022/03/16 02:38:40;;;;;;;469.57;336.57;;;;;;;7.55;100.00;98889.09;6146458;23;20020;-66
2022/03/16 02:41:05;;;;;;;469.07;339.23;;;;;;;7.50;100.00;98889.94;6147904;22;20032;-66
2022/03/16 02:43:30;;;;;;;465.83;335.13;;;;;;;7.63;100.00;98896.72;6145147;23;20013;-67
2022/03/16 02:45:56;;;;;;;459.93;322.03;;;;;;;7.63;100.00;98887.34;6146351;23;20305;-64
2022/03/16 02:48:22;;;;;;;463.73;335.70;;;;;;;7.60;100.00;98878.84;6146444;23;20041;-65
2022/03/16 02:50:48;;;;;;;463.00;340.10;;;;;;;7.72;100.00;98871.16;6148005;23;20327;-65
2022/03/16 02:53:15;;;;;;;459.50;338.07;;;;;;;8.54;100.00;98901.38;6146274;23;20010;-65
2022/03/16 02:55:41;;;;;;;458.80;347.60;;;;;;;8.99;100.00;98892.56;6144622;23;20010;-64
2022/03/16 02:58:07;;;;;;;454.03;363.07;;;;;;;9.22;100.00;98888.06;6144842;23;20553;-65
2022/03/16 03:00:33;;;;;;;459.00;358.63;;;;;;;9.60;100.00;98880.84;6145078;23;20014;-66
2022/03/16 03:02:58;;;;;;;466.70;387.17;;;;;;;9.91;100.00;98896.69;6143800;23;20143;-64
2022/03/16 03:05:24;;;;;;;460.97;390.33;;;;;;;9.98;100.00;98900.88;6147331;23;20036;-65
2022/03/16 03:07:49;;;;;;;467.13;405.10;;;;;;;9.91;100.00;98875.38;6146494;23;20013;-66
2022/03/16 03:10:15;;;;;;;464.40;400.63;;;;;;;9.88;100.00;98870.28;6142627;23;20092;-65
2022/03/16 03:12:40;;;;;;;461.63;404.23;;;;;;;10.06;100.00;98890.53;6142918;23;20020;-65
2022/03/16 03:15:10;;;;;;;455.10;388.73;;;;;;;10.06;100.00;98886.25;6146018;23;20005;-66
2022/03/16 03:17:35;;;;;;;471.03;419.73;;;;;;;9.88;100.00;98865.16;6147592;23;20001;-66
2022/03/16 03:20:01;;;;;;;468.63;416.33;;;;;;;10.05;100.00;98904.22;6141806;23;20016;-65
2022/03/16 03:22:28;;;;;;;463.53;412.53;;;;;;;10.10;100.00;98893.03;6144105;23;20416;-66
2022/03/16 03:24:54;;;;;;;462.27;411.47;;;;;;;10.03;100.00;98872.63;6145966;23;20017;-66
2022/03/16 03:27:20;;;;;;;471.90;420.80;;;;;;;10.16;100.00;98889.59;6147043;23;20045;-66
2022/03/16 03:29:46;;;;;;;480.07;428.90;;;;;;;10.09;100.00;98873.44;6141657;23;20037;-66
2022/03/16 03:32:11;;;;;;;465.37;414.80;;;;;;;10.07;100.00;98864.91;6144583;23;20029;-64
2022/03/16 03:34:36;;;;;;;466.97;415.87;;;;;;;10.16;100.00;98878.47;6145869;23;20455;-66
2022/03/16 03:37:02;;;;;;;470.30;419.27;;;;;;;10.11;100.00;98868.25;6146297;23;20014;-66
2022/03/16 03:39:27;;;;;;;479.23;428.00;;;;;;;10.07;100.00;98864.91;6141387;23;20025;-66
2022/03/16 03:41:53;;;;;;;479.33;428.07;;;;;;;10.12;100.00;98869.13;6143881;23;20025;-67
2022/03/16 03:44:18;;;;;;;476.30;424.90;;;;;;;10.07;100.00;98861.50;6145767;23;20017;-67
2022/03/16 03:46:44;;;;;;;479.23;427.33;;;;;;;10.20;100.00;98877.56;6144120;23;20010;-66
2022/03/16 03:49:09;;;;;;;471.40;420.03;;;;;;;10.13;100.00;98868.25;6142855;23;20043;-66
2022/03/16 03:51:35;;;;;;;483.70;432.10;;;;;;;10.12;100.00;98880.22;6144349;23;20036;-65
2022/03/16 03:54:00;;;;;;;473.23;422.70;;;;;;;10.12;100.00;98879.34;6146006;23;20332;-66
2022/03/16 03:56:25;;;;;;;466.00;415.37;;;;;;;10.22;100.00;98897.19;6144140;23;20009;-63
2022/03/16 03:58:51;;;;;;;472.00;421.20;;;;;;;10.10;100.00;98874.25;6142473;23;20067;-65
2022/03/16 04:01:16;;;;;;;468.73;417.67;;;;;;;10.08;100.00;98884.53;6144572;23;20090;-65
2022/03/16 04:03:43;;;;;;;465.60;415.63;;;;;;;10.07;100.00;98885.38;6147339;22;20112;-65
2022/03/16 04:06:10;;;;;;;466.67;416.87;;;;;;;10.00;100.00;98876.09;6144153;23;20494;-65
2022/03/16 04:08:35;;;;;;;467.87;417.40;;;;;;;9.98;100.00;98874.41;6142616;23;20644;-66
2022/03/16 04:11:01;;;;;;;474.60;424.83;;;;;;;9.96;100.00;98871.03;6145336;23;20121;-66
2022/03/16 04:13:26;;;;;;;473.03;423.17;;;;;;;10.04;100.00;98890.56;6147274;23;20012;-66
2022/03/16 04:15:52;;;;;;;473.03;422.77;;;;;;;9.96;100.00;98881.28;6143076;23;20449;-66
2022/03/16 04:18:17;;;;;;;459.00;409.60;;;;;;;9.97;100.00;98893.22;6142454;23;20014;-66
2022/03/16 04:20:42;;;;;;;458.80;409.63;;;;;;;9.79;100.00;98886.59;6146243;23;20010;-66
2022/03/16 04:23:08;;;;;;;471.00;420.97;;;;;;;9.79;100.00;98907.09;6147950;23;20099;-65
2022/03/16 04:25:33;;;;;;;461.17;411.07;;;;;;;9.79;100.00;98919.03;6143411;23;20013;-65
2022/03/16 04:27:59;;;;;;;467.37;416.90;;;;;;;9.81;100.00;98913.03;6142368;23;20070;-65
2022/03/16 04:30:24;;;;;;;458.23;408.27;;;;;;;9.80;100.00;98916.44;6147325;23;20085;-64
2022/03/16 04:32:52;;;;;;;445.97;394.50;;;;;;;9.78;100.00;98918.19;6145892;23;20005;-65
2022/03/16 04:35:18;;;;;;;456.83;406.93;;;;;;;9.78;100.00;98925.88;6142470;23;20013;-65
2022/03/16 04:37:44;;;;;;;448.77;395.10;;;;;;;9.76;100.00;98919.91;6142287;23;20056;-65
2022/03/16 04:40:10;;;;;;;448.53;399.30;;;;;;;9.69;100.00;98909.75;6146782;22;20475;-65
2022/03/16 04:42:35;;;;;;;446.33;396.00;;;;;;;9.79;100.00;98926.72;6146353;23;20051;-65
2022/03/16 04:45:00;;;;;;;442.53;389.03;;;;;;;9.59;100.00;98909.00;6142624;23;20015;-65
2022/03/16 04:47:26;;;;;;;435.83;377.17;;;;;;;9.72;100.00;98937.91;6142648;23;20013;-66
2022/03/16 04:49:51;;;;;;;439.67;384.47;;;;;;;9.57;100.00;98926.94;6147667;23;20025;-65
2022/03/16 04:52:16;;;;;;;442.93;392.70;;;;;;;9.66;100.00;98949.06;6150907;23;20331;-65
2022/03/16 04:54:42;;;;;;;437.83;384.67;;;;;;;9.62;100.00;98957.63;6145856;23;20103;-66
2022/03/16 04:57:07;;;;;;;434.07;382.07;;;;;;;9.56;100.00;98950.84;6117090;23;20080;-68
2022/03/16 04:59:33;;;;;;;441.83;389.80;;;;;;;9.53;100.00;98965.38;6147601;22;20014;-65
2022/03/16 05:01:58;;;;;;;443.83;395.17;;;;;;;9.49;100.00;98963.72;6145739;23;20052;-64
2022/03/16 05:04:23;;;;;;;435.10;377.07;;;;;;;9.52;100.00;98963.69;6141480;23;20010;-64
2022/03/16 05:06:49;;;;;;;431.53;383.03;;;;;;;9.31;100.00;98959.63;6144260;23;20570;-64
2022/03/16 05:09:14;;;;;;;434.33;378.00;;;;;;;9.39;100.00;98972.34;6120357;23;20088;-66
2022/03/16 05:11:42;;;;;;;431.70;366.93;;;;;;;9.38;100.00;98965.50;6145215;23;20115;-66
2022/03/16 05:14:09;;;;;;;437.37;363.73;;;;;;;9.28;100.00;98975.00;6141241;23;20550;-66
2022/03/16 05:16:35;;;;;;;433.37;366.30;;;;;;;9.15;100.00;98969.13;6145230;23;20009;-65
2022/03/16 05:19:01;;;;;;;431.63;373.73;;;;;;;9.10;100.00;98981.09;6146697;23;20082;-66
2022/03/16 05:21:26;;;;;;;430.50;356.37;;;;;;;9.04;100.00;98981.13;6144920;23;20436;-66
2022/03/16 05:23:52;;;;;;;432.53;355.10;;;;;;;9.16;100.00;99005.78;6141150;23;20097;-66
2022/03/16 05:26:17;;;;;;;426.37;358.47;;;;;;;9.08;100.00;99022.91;6145487;23;20406;-65
2022/03/16 05:28:43;;;;;;;423.47;353.77;;;;;;;8.97;100.00;99007.63;6146683;23;20083;-66
2022/03/16 05:31:08;;;;;;;424.33;348.20;;;;;;;8.87;100.00;99011.09;6144500;23;20032;-65
2022/03/16 05:33:33;;;;;;;422.30;354.90;;;;;;;8.95;100.00;99023.84;6141353;23;20484;-65
2022/03/16 05:35:59;;;;;;;419.73;355.43;;;;;;;8.87;100.00;99034.09;6145685;23;20037;-65
2022/03/16 05:38:24;;;;;;;421.47;353.87;;;;;;;8.84;100.00;99038.38;6144726;23;20440;-65
2022/03/16 05:40:50;;;;;;;419.63;358.30;;;;;;;8.75;100.00;99025.63;6143059;23;20022;-63
2022/03/16 05:43:15;;;;;;;418.10;347.50;;;;;;;8.71;100.00;99051.22;6139864;23;20014;-66
2022/03/16 05:45:41;;;;;;;411.23;345.73;;;;;;;8.87;100.00;99059.66;6144378;23;20443;-65
2022/03/16 05:48:06;;;;;;;406.23;333.53;;;;;;;8.68;100.00;99048.69;6145823;23;20073;-68
2022/03/16 05:50:32;;;;;;;403.07;337.57;;;;;;;8.81;100.00;99085.28;6140719;23;20024;-68
2022/03/16 05:52:59;;;;;;;406.60;330.40;;;;;;;8.78;100.00;99071.66;6141586;23;20016;-65
2022/03/16 05:55:26;;;;;;;403.40;337.57;;;;;;;8.68;100.00;99073.41;6141623;22;20109;-67
2022/03/16 05:57:51;;;;;;;396.83;318.73;;;;;;;8.60;100.00;99078.56;6146063;22;20045;-67
2022/03/16 06:00:18;;;;;;;402.83;336.90;;;;;;;8.62;100.00;99068.31;6139717;23;20456;-65
2022/03/16 06:02:45;;;;;;;395.70;343.23;;;;;;;8.65;100.00;99078.53;6141692;23;20777;-65
2022/03/16 06:05:12;;;;;;;392.90;341.67;;;;;;;8.71;100.00;99094.69;6145351;23;20120;-73
2022/03/16 06:07:38;;;;;;;391.57;337.03;;;;;;;8.65;100.00;99092.16;6146817;23;20017;-67
2022/03/16 06:10:05;;;;;;;393.57;341.57;;;;;;;8.59;100.00;99088.78;6139404;23;20071;-62
2022/03/16 06:12:30;;;;;;;385.10;334.23;;;;;;;8.61;100.00;99090.44;6141898;23;20020;-61
2022/03/16 06:14:56;;;;;;;385.40;335.07;;;;;;;8.54;100.00;99104.13;6147063;23;20014;-61
2022/03/16 06:17:21;;;;;;;390.17;333.50;;;;;;;8.60;100.00;99113.47;6144445;23;20032;-61
2022/03/16 06:19:46;;;;;;;390.77;337.80;;;;;;;8.48;100.00;99100.75;6138085;23;20094;-62
2022/03/16 06:22:12;;;;;;;380.90;328.10;;;;;;;8.43;100.00;99113.53;6140564;23;20093;-61
2022/03/16 06:24:37;;;;;;;386.13;330.33;;;;;;;8.49;100.00;99122.88;6143033;23;20618;-61
2022/03/16 06:27:03;;;;;;;381.07;325.17;;;;;;;8.35;100.00;99114.41;6140215;23;20032;-61
2022/03/16 06:29:28;;;;;;;386.03;343.43;;;;;;;8.37;100.00;99133.13;6138117;23;20017;-61
2022/03/16 06:31:54;;;;;;;373.27;320.33;;;;;;;8.46;100.00;99122.88;6141428;23;20031;-61
2022/03/16 06:34:19;;;;;;;376.47;331.17;;;;;;;8.41;100.00;99120.34;6143109;23;20705;-61
2022/03/16 06:36:45;;;;;;;373.67;332.27;;;;;;;8.61;100.00;99136.44;6138402;23;20040;-61
2022/03/16 06:39:10;;;;;;;374.60;330.27;;;;;;;8.47;100.00;99120.34;6136741;23;20009;-61
2022/03/16 06:41:36;;;;;;;373.90;324.73;;;;;;;8.56;100.00;99134.78;6140728;23;20330;-67
2022/03/16 06:44:02;;;;;;;361.27;317.23;;;;;;;8.58;100.00;99139.03;6142569;23;20032;-61
2022/03/16 06:46:27;;;;;;;385.13;343.70;;;;;;;8.59;100.00;99152.66;6141112;23;20317;-62
2022/03/16 06:48:53;;;;;;;366.47;321.70;;;;;;;8.47;100.00;99156.09;6137704;23;20027;-62
2022/03/16 06:51:18;;;;;;;367.30;321.50;;;;;;;8.41;100.00;99143.31;6141916;23;20087;-61
2022/03/16 06:53:43;;;;;;;362.83;309.43;;;;;;;8.48;100.00;99164.63;6143750;23;20089;-62
2022/03/16 06:56:09;;;;;;;364.50;320.50;;;;;;;8.36;100.00;99160.38;6141470;23;20009;-62
2022/03/16 06:58:34;;;;;;;369.80;323.83;;;;;;;8.50;100.00;99171.41;6138242;23;20013;-62
2022/03/16 07:01:00;;;;;;;368.40;325.80;;;;;;;8.54;100.00;99175.66;6142280;23;20005;-62
2022/03/16 07:03:25;;;;;;;358.60;319.37;;;;;;;8.45;100.00;99169.72;6143102;23;20406;-61
2022/03/16 07:05:50;;;;;;;366.67;326.57;;;;;;;8.49;100.00;99189.28;6140375;23;20009;-62
2022/03/16 07:08:16;;;;;;;359.23;320.47;;;;;;;8.39;100.00;99185.06;6151858;22;20029;-62
2022/03/16 07:10:43;;;;;;;354.83;315.83;;;;;;;8.39;100.00;99193.59;6144029;22;20718;-62
2022/03/16 07:13:11;;;;;;;348.43;310.13;;;;;;;8.22;100.00;99191.03;6143494;23;20022;-62
2022/03/16 07:15:37;;;;;;;354.37;316.37;;;;;;;8.35;100.00;99211.47;6140055;23;20128;-62
2022/03/16 07:18:02;;;;;;;357.07;319.50;;;;;;;8.16;100.00;99164.63;6137973;23;20476;-62
2022/03/16 07:20:29;;;;;;;356.60;318.80;;;;;;;8.25;100.00;99195.25;6142939;23;20010;-62
2022/03/16 07:23:09;;;;;;;342.00;305.00;;;;;;;8.22;100.00;99211.47;6143511;23;20005;-62
2022/03/16 07:25:35;;;;;;;350.47;312.13;;;;;;;8.14;100.00;99200.41;6139677;23;20006;-62
2022/03/16 07:28:00;;;;;;;333.13;296.00;;;;;;;8.18;100.00;99214.00;6139113;23;20376;-62
2022/03/16 07:30:26;;;;;;;342.00;298.27;;;;;;;8.07;100.00;99206.34;6142773;23;20010;-61
2022/03/16 07:32:51;;;;;;;346.83;309.17;;;;;;;8.17;100.00;99240.41;6143283;22;20024;-61
2022/03/16 07:35:17;;;;;;;347.60;309.57;;;;;;;8.06;100.00;99222.50;6140225;23;20425;-62
2022/03/16 07:37:42;;;;;;;341.30;303.90;;;;;;;8.03;100.00;99244.63;6141168;23;20542;-62
2022/03/16 07:40:09;;;;;;;344.67;307.10;;;;;;;7.88;100.00;99219.94;6144045;22;20029;-62
2022/03/16 07:42:38;;;;;;;348.73;311.13;;;;;;;7.97;100.00;99245.50;6143195;23;20005;-62
2022/03/16 07:45:04;;;;;;;347.57;309.83;;;;;;;7.88;100.00;99242.06;6140456;23;20733;-62
2022/03/16 07:47:30;;;;;;;340.70;301.93;;;;;;;7.84;100.00;99241.22;6141966;23;20096;-62
2022/03/16 07:49:56;;;;;;;332.73;296.40;;;;;;;7.86;100.00;99261.63;6144671;23;20106;-62
2022/03/16 07:52:23;;;;;;;334.27;297.57;;;;;;;7.87;100.00;99255.69;6142352;23;20012;-61
2022/03/16 07:54:48;;;;;;;342.87;302.70;;;;;;;7.81;100.00;99259.06;6139318;23;20510;-62
2022/03/16 07:57:13;;;;;;;343.27;306.13;;;;;;;7.85;100.00;99259.94;6141615;23;20013;-62
2022/03/16 07:59:39;;;;;;;334.67;295.97;;;;;;;7.83;100.00;99270.13;6144425;23;20368;-62
2022/03/16 08:02:04;;;;;;;340.23;303.07;;;;;;;7.81;100.00;99269.28;6141805;23;20431;-62
2022/03/16 08:04:30;;;;;;;335.83;299.40;;;;;;;7.82;100.00;99289.72;6139481;23;20005;-61
2022/03/16 08:06:55;;;;;;;321.47;286.27;;;;;;;7.82;100.00;99276.94;6141752;23;20059;-62
2022/03/16 08:09:20;;;;;;;329.00;293.27;;;;;;;7.85;100.00;99288.03;6144623;23;20425;-61
2022/03/16 08:11:46;;;;;;;348.57;312.50;;;;;;;7.75;100.00;99269.28;6141312;23;20017;-62
2022/03/16 08:14:12;;;;;;;332.00;296.90;;;;;;;7.80;100.00;99272.69;6138382;23;20377;-62
2022/03/16 08:16:38;;;;;;;322.80;288.20;;;;;;;7.94;100.00;99291.44;6142191;23;20671;-64
2022/03/16 08:19:03;;;;;;;327.17;292.63;;;;;;;7.89;100.00;99280.38;6144663;23;20013;-63
2022/03/16 08:21:29;;;;;;;340.40;305.00;;;;;;;7.86;100.00;99290.56;6140746;23;20087;-62
2022/03/16 08:23:54;;;;;;;348.43;312.33;;;;;;;7.94;100.00;99293.97;6139401;23;20490;-62
2022/03/16 08:26:21;;;;;;;333.13;298.23;;;;;;;7.84;100.00;99288.88;6143671;23;20021;-62
2022/03/16 08:28:46;;;;;;;334.47;299.87;;;;;;;7.77;100.00;99282.88;6143739;23;20015;-63
2022/03/16 08:31:12;;;;;;;342.03;306.97;;;;;;;7.79;100.00;99296.50;6140745;23;20093;-62
2022/03/16 08:33:37;;;;;;;337.13;301.67;;;;;;;7.74;100.00;99291.38;6139594;23;20009;-62
2022/03/16 08:36:07;;;;;;;323.27;288.57;;;;;;;7.77;100.00;99309.25;6143280;23;20487;-62
2022/03/16 08:38:36;;;;;;;323.93;289.17;;;;;;;7.73;100.00;99310.09;6144860;23;20088;-61
2022/03/16 08:41:02;;;;;;;324.73;289.97;;;;;;;7.68;100.00;99314.31;6139506;23;20041;-61
2022/03/16 08:43:28;;;;;;;318.23;284.70;;;;;;;7.68;100.00;99319.44;6138912;23;20013;-61
2022/03/16 08:45:53;;;;;;;332.30;297.40;;;;;;;7.61;100.00;99337.25;6143811;23;20010;-61
2022/03/16 08:48:19;;;;;;;320.80;286.27;;;;;;;7.49;100.00;99322.78;6118231;22;20018;-61
2022/03/16 08:50:44;;;;;;;324.53;290.87;;;;;;;7.53;100.00;99331.28;6139790;23;20010;-62
2022/03/16 08:53:10;;;;;;;327.33;293.20;;;;;;;7.46;100.00;99335.53;6139986;23;20331;-62
2022/03/16 08:55:36;;;;;;;316.83;282.97;;;;;;;7.54;100.00;99350.84;6144663;23;20052;-61
2022/03/16 08:58:02;;;;;;;330.63;295.90;;;;;;;7.55;100.00;99347.47;6143474;23;20001;-61
2022/03/16 09:00:27;;;;;;;317.40;283.03;;;;;;;7.52;100.00;99347.44;6140078;23;20052;-62
2022/03/16 09:02:52;;;;;;;326.33;291.83;;;;;;;7.54;100.00;99351.72;6140895;23;20025;-63
2022/03/16 09:05:18;;;;;;;323.87;289.70;;;;;;;7.35;100.00;99345.66;6143843;23;20439;-65
2022/03/16 09:07:43;;;;;;;333.67;298.00;;;;;;;7.48;100.00;99369.53;6143142;23;20082;-62
2022/03/16 09:10:09;;;;;;;318.07;284.17;;;;;;;7.48;100.00;99363.56;6140015;23;20005;-62
2022/03/16 09:12:35;;;;;;;327.37;292.53;;;;;;;7.38;100.00;99347.38;6140599;22;20374;-62
2022/03/16 09:15:01;;;;;;;327.83;293.00;;;;;;;7.57;100.00;99355.97;6143766;23;20044;-62
2022/03/16 09:17:28;;;;;;;332.77;296.80;;;;;;;7.50;100.00;99333.81;6142181;23;20010;-63
2022/03/16 09:19:53;;;;;;;322.27;286.43;;;;;;;7.67;100.00;99353.47;6140628;23;20024;-63
2022/03/16 09:22:19;;;;;;;323.83;289.13;;;;;;;7.56;100.00;99337.25;6146790;23;20088;-62
2022/03/16 09:24:44;;;;;;;327.93;293.37;;;;;;;7.75;100.00;99358.59;6154815;23;20032;-63
2022/03/16 09:27:09;;;;;;;320.43;285.97;;;;;;;7.59;100.00;99334.72;6142668;23;20014;-63
2022/03/16 09:29:35;;;;;;;329.30;293.50;;;;;;;7.71;100.00;99349.22;6138970;23;20036;-63
2022/03/16 09:32:01;;;;;;;334.83;300.57;;;;;;;7.74;100.00;99351.78;6142904;23;20017;-63
2022/03/16 09:34:27;;;;;;;326.90;292.87;;;;;;;7.79;100.00;99357.75;6144430;23;20013;-63
2022/03/16 09:36:52;;;;;;;329.53;295.57;;;;;;;7.74;100.00;99344.13;6141102;23;20006;-63
2022/03/16 09:39:18;;;;;;;334.17;299.97;;;;;;;7.83;100.00;99359.47;6139476;23;20024;-63
2022/03/16 09:41:43;;;;;;;338.23;303.40;;;;;;;7.85;100.00;99365.44;6142699;22;20057;-63
2022/03/16 09:44:10;;;;;;;336.37;301.60;;;;;;;7.73;100.00;99358.59;6144107;23;20009;-64
2022/03/16 09:46:36;;;;;;;345.17;309.37;;;;;;;7.76;100.00;99357.75;6141012;22;20018;-64
2022/03/16 09:49:07;;;;;;;343.30;309.07;;;;;;;7.95;100.00;99367.19;6140343;23;20013;-62
2022/03/16 09:51:39;;;;;;;328.97;295.10;;;;;;;7.95;100.00;99374.84;6143224;23;20013;-63
2022/03/16 09:54:05;;;;;;;331.13;298.13;;;;;;;7.99;100.00;99384.22;6144582;23;20370;-62
2022/03/16 09:56:33;;;;;;;333.73;300.07;;;;;;;8.02;100.00;99389.31;6139263;23;20037;-63
2022/03/16 09:58:58;;;;;;;328.47;296.30;;;;;;;7.92;100.00;99396.94;6140441;23;20080;-64
2022/03/16 10:01:24;;;;;;;327.23;294.83;;;;;;;7.95;100.00;99394.41;6143363;23;20037;-63
2022/03/16 10:03:50;;;;;;;333.03;300.47;;;;;;;7.76;100.00;99394.34;6144033;23;20009;-62
2022/03/16 10:06:17;;;;;;;325.83;293.30;;;;;;;7.64;100.00;99403.63;6113593;23;20053;-63
2022/03/16 10:13:13;;;;;;;315.80;282.93;;;;;;;7.60;100.00;99409.56;6140580;23;20257;-63
2022/03/16 10:14:15;;;;;;;316.67;283.73;;;;;;;7.50;100.00;99418.03;6141439;23;20392;-63
2022/03/16 10:19:48;;;;;;;313.37;280.17;;;;;;;7.50;100.00;99415.47;6142005;23;20074;-61
2022/03/16 10:22:22;;;;;;;319.03;285.47;;;;;;;7.38;100.00;99407.75;6142911;23;20009;-63
2022/03/16 10:24:47;;;;;;;329.53;294.10;;;;;;;7.43;100.00;99404.34;6140376;23;20010;-63
2022/03/16 10:27:17;;;;;;;327.60;293.00;;;;;;;7.50;100.00;99421.44;6139635;23;20013;-63
2022/03/16 10:29:42;;;;;;;315.90;282.33;;;;;;;7.50;100.00;99434.19;6142112;23;20009;-63
2022/03/16 10:32:08;;;;;;;319.43;285.87;;;;;;;7.44;100.00;99411.16;6142391;23;20010;-68
2022/03/16 10:34:33;;;;;;;322.13;288.73;;;;;;;7.47;100.00;99415.47;6139956;23;20010;-63
2022/03/16 10:36:59;;;;;;;312.80;279.23;;;;;;;7.37;100.00;99404.34;6139751;23;20013;-63
2022/03/16 10:39:36;;;;;;;314.23;281.17;;;;;;;7.36;100.00;99407.72;6143433;23;20067;-63
2022/03/16 10:47:55;;;;;;;312.60;278.17;;;;;;;7.42;100.00;99424.78;6142683;23;20135;-63
2022/03/16 10:50:21;;;;;;;319.17;284.40;;;;;;;7.30;100.00;99423.84;6142913;23;20010;-63
2022/03/16 10:52:48;;;;;;;313.83;280.30;;;;;;;7.21;100.00;99407.63;6140485;23;20014;-63
2022/03/16 10:55:14;;;;;;;317.40;283.10;;;;;;;7.29;100.00;99422.16;6139455;23;20012;-64
2022/03/16 10:57:43;;;;;;;322.67;289.27;;;;;;;7.29;100.00;99427.25;6142711;23;20447;-63
2022/03/16 11:00:08;;;;;;;307.63;275.10;;;;;;;7.26;100.00;99432.31;6143494;23;20379;-62
2022/03/16 11:02:36;;;;;;;323.20;289.20;;;;;;;7.29;100.00;99432.34;6139213;23;20018;-64
2022/03/16 11:05:01;;;;;;;312.90;279.47;;;;;;;7.38;100.00;99440.91;6140071;22;20005;-64
2022/03/16 11:07:27;;;;;;;311.60;277.77;;;;;;;7.27;100.00;99428.91;6143785;23;20016;-64